Etusivu
METAR-TAF:

METAR-TAF

Lentoasemat :

Dublinin lentoasema

Dublin, Irlanti

Leveyspiiri: 53-26N, Pituuspiiri: 006-15W, korkeus merenpinnasta: 68 m

Tämänhetkinen sää

Tämä raportti tehtiin 19 minuuttia sitten, kello 09.00 UTC
Tuuli 17 kn idästä
Lämpötila 9°C
Kosteus 71%
Ilmanpaine 1024 hPa
Näkyvyys 10 km tai enemmän
Hajonneita pilviä 2200 ft:n korkeudessa

METAR: EIDW 190900Z 10017KT 9999 BKN022 09/04 Q1024 NOSIG

Aika: 09:19 (09:19 UTC)

Sääennuste

Tämä raportti tehtiin 4 tuntia ja 19 minuuttia sitten, kello 05.00 UTC
Ennuste voimassa 19. päivästä klo 06 UTC - 20. päivään klo 06 UTC
Tuuli 14 kn idästä
Näkyvyys 10 km tai enemmän
Muutamia pilviä 1800 ft:n korkeudessa
Ajoittain
19. päivästä klo 06 UTC - 19. päivään klo 12 UTC
Tuuli 17 kn idästä puuskistuen 27 kn:hen
Ajoittain
19. päivästä klo 20 UTC - 20. päivään klo 06 UTC
Tuuli 18 kn idästä puuskistuen 30 kn:hen

TAF: EIDW 190500Z 1906/2006 08014KT 9999 FEW018 TEMPO 1906/1912 10017G27KT TEMPO 1920/2006 09018G30KT

Säähavainnot ja -ennusteet yli 4000 lentoasemalta (METAR- ja TAF-raportit).

Käytössä olevat sääasemat on merkitty karttaan keltaisilla ja punaisilla pisteillä.

Aseta hiiri pisteen päälle nähdäksesi sääaseman nimen.

Klikkaa sitten nähdäksesi säähavainnot ja -ennusteet.

Kartan vaihtaminen: klikkaa mustalla rastilla varustettuja vihreitä pisteitä, niin voit zoomata sisään; viivalla varustettua vihreää pistettä, niin voit zoomata ulos tai vihreitä nuolia, niin pääset viereisille kartoille.


METAR-TAF: